Dzaoudzi, Comoros
Current Conditions -  °F | °C
As of 11:30 AM on Tuesday 21 Oct 2014 (Local Time) from FMCZ Reporting Station
Few Clouds Few Clouds  
Wind Chill: 86°   Ceiling: Unl
Heat Index: 90°   Visibility: 6mi
Dew Point: 70°   Wind: 12mph
Humidity: 58%   Direction: 180°S
Pressure: 29.97"   Gusts: NA
Location:  12.8°S, 45.28°E
Report Text: FMCZ 210830Z 18010KT 9999 FEW023 30/21 Q1015 NOSIG
Loading
Personal Weather Stations






























Interactive Weather Map
Tropical Storm Tracking
New forecast layout! Learn more

10-Day Weather Forecast

Advertisements
Track Severe Weather on mobile